Left Banner
 
 

2018 Lead the Way 5K

Age Group Results

May 20, 2018


Timing & Event Services by Event Mercenaries, Inc.


Men: Top Finishers 0- 6 7- 8 9-10 11-14 15-19 20-29 30-39 40-49 50-59 60-99
Women: Top Finishers 0- 6 7- 8 9-10 11-14 15-19 20-29 30-39 40-49 50-59 60-99

5K RUN

Top

Female OPEN Winners

Place Name City Bib No Age Overall Total Time Pace
1 Caroline Dombalis Asheville NC 28 28 13 24:46.2 7:59/M
Top

Male OPEN Winners

Place Name City Bib No Age Overall Total Time Pace
1 Andy Nazworth Black Mountain NC 74 54 1 19:10.6 6:11/M
Top

Female 6 and Under

Place Name City Bib No Age Overall Total Time Pace
1 Charlotte Chapman Black Mountain NC 126 6 83 43:00.5 13:52/M
2 Gilly MacCubbin Black Mountain NC 67 5 84 43:03.5 13:53/M
3 Caleb Lunsford Black Mountain NC 124 0 94 47:54.7 15:27/M
4 Sidney Banks Black Mountain NC 136 5 110 51:49.5 16:43/M
Top

Male 6 and Under

Place Name City Bib No Age Overall Total Time Pace
1 Elijah Watkin Black Mountain NC 117 6 52 35:46.9 11:32/M
2 Westen McAllister Black Mountain NC 70 6 53 35:53.6 11:35/M
3 Radford Stillwell Black Mountain NC 133 5 86 43:14.3 13:57/M
4 Jordan Sylvestre Black Mountain NC 99 5 100 49:15.5 15:53/M
5 Porter Reece Swannanos NC 85 6 108 51:49.0 16:43/M
Top

Female 7 to 8

Place Name City Bib No Age Overall Total Time Pace
1 Alice Wardwell Black Mountain NC 106 7 43 31:27.2 10:09/M
2 Virginia Fouse Montreat NC 39 8 56 35:59.4 11:36/M
3 Kayla Drake Black Mountain NC 31 8 58 36:05.6 11:38/M
4 Isabella Chow Black Mountain NC 125 8 65 37:21.3 12:03/M
5 Roxie Christensen Black Mountain NC 23 7 72 39:47.1 12:50/M
6 Shelby Banks Black Mountain NC 135 8 89 44:51.6 14:28/M
7 Emerson Kearns Black Muntain NC 57 8 92 46:33.7 15:01/M
8 Reid Pomeroy Black Mountain NC 81 7 97 48:18.5 15:35/M
9 Ruby Sudnik Black Mountain NC 146 7 101 49:27.3 15:57/M
10 Amanda Latta Black Mountain NC 63 8 125 58:11.6 18:46/M
Top

Male 7 to 8

Place Name City Bib No Age Overall Total Time Pace
1 Tucker Marsh Back Mountain NC 68 7 36 30:05.0 9:42/M
2 Emmett Minks Black Mountain NC 71 8 40 30:58.1 9:59/M
3 Kaiden Gregory Black Mountain NC 46 8 46 32:31.8 10:29/M
4 Oakley McAllister Black Mountain NC 69 8 47 32:32.2 10:30/M
5 Graham Clegg Black Mountain NC 26 8 48 33:05.1 10:40/M
6 Gabriel Sylvestre Black Mountain NC 98 8 49 33:05.3 10:40/M
7 Harrison Stillwell Black Mountain NC 132 7 61 36:25.4 11:45/M
8 Jack Gibbon Black Mountain NC 115 8 81 42:58.9 13:52/M
9 Cord Griffin Black Mountain NC 131 8 87 43:19.7 13:58/M
10 Zachary Woodcock Asheville NC 113 7 117 56:48.5 18:19/M
11 Brock Little Black Mountain NC 142 7 120 57:16.1 18:28/M
12 Hunter Griffin Black Mountain NC 50 8 122 57:24.7 18:31/M
13 Liam Wallace Black Mountain NC 104 7 124 57:41.0 18:36/M
14 Dean Christenbury Black Mountain NC 20 8 126 58:18.6 18:48/M
Top

Female 9 to 10

Place Name City Bib No Age Overall Total Time Pace
1 Aislyn Drake Black Mountain NC 29 10 18 26:21.0 8:30/M
2 Harper Fouse Montreat NC 38 9 34 29:37.0 9:33/M
3 Lily Berry Black Mountain NC 15 9 45 32:00.1 10:19/M
4 Laela Griffin Black Mountain NC 130 10 70 37:51.3 12:13/M
5 Mckinley Eddings Black Mountain NC 32 9 73 40:30.1 13:04/M
6 Elise Carson Asheville NC 137 10 77 41:18.9 13:19/M
7 Maddie Pomeroy Black Mountain NC 80 9 96 48:17.0 15:35/M
Top

Male 9 to 10

Place Name City Bib No Age Overall Total Time Pace
1 Morris Angeles Black Mountain NC 6 9 9 23:53.3 7:42/M
2 Kayden Linquist Black Mountain NC 145 10 12 24:42.0 7:58/M
3 Gavin Leglise Asheville NC 66 10 14 25:31.9 8:14/M
4 Finn Traylor Black Mountain NC 102 10 23 27:17.1 8:48/M
5 Emmett Wardwell Black Mountain NC 107 9 29 29:12.3 9:25/M
6 Owen Niehr Asheville NC 76 10 32 29:23.8 9:29/M
7 William Gregory Black Mountain NC 48 10 55 35:59.0 11:36/M
8 Jacob Goram Asheville NC 43 10 104 49:31.9 15:58/M
9 Che Borders Asheville NC 17 10 105 49:49.0 16:04/M
10 Olin Christenbury Black Mountain NC 22 9 115 56:34.6 18:15/M
11 Mason Lamotte Black Mountain NC 62 9 116 56:38.6 18:16/M
Top

Female 11 to 14

Place Name City Bib No Age Overall Total Time Pace
1 Bella Hale Black Mountain NC 51 11 42 31:24.2 10:08/M
2 Dezi Govern Hendersonville NC 44 11 51 34:41.3 11:11/M
3 Riley Eddings Black Mountain NC 33 13 64 36:55.7 11:55/M
4 Piper Berry Black Mountain NC 16 12 69 37:49.3 12:12/M
5 Madelyn Gregory Black Mountain NC 47 14 95 48:13.5 15:33/M
Top

Male 11 to 14

Place Name City Bib No Age Overall Total Time Pace
1 Jordan Cobb Enka NC 143 11 10 23:56.8 7:43/M
2 Wade Sharp Asheville NC 91 11 11 24:00.6 7:45/M
3 Magnus Mulholland Asheville NC 73 11 15 25:40.5 8:17/M
4 Chamberland Andersen Black Mountain NC 3 11 21 26:46.6 8:38/M
5 Cadence Andersen Black Mountain NC 2 11 27 28:56.5 9:20/M
6 Talon Smith Swannanoa NC 148 11 28 28:58.7 9:21/M
7 Matteo Bernardi Asheville NC 13 11 31 29:19.7 9:27/M
8 Miles Hermanni Asheville NC 55 11 75 40:32.6 13:05/M
9 Andrew Dockery Asheville NC 27 11 76 40:37.0 13:06/M
10 Sebastian Perez Asheville NC 78 11 79 41:31.4 13:24/M
11 James Kite Candler NC 59 11 113 52:01.5 16:47/M
12 Jaden Smith-Hornbuckle Asheville NC 92 11 128 58:28.2 18:52/M
Top

Female 15 to 19

Place Name City Bib No Age Overall Total Time Pace
1 Amaya Avila Black Mountain NC 11 15 74 40:31.3 13:04/M
Top

Male 15 to 19

Place Name City Bib No Age Overall Total Time Pace
1 Noah Lehman Black Mountain NC 138 15 2 19:31.4 6:18/M
2 Daniel Averett Black Mountain NC 8 15 7 23:21.6 7:32/M
Top

Female 20 to 29

Place Name City Bib No Age Overall Total Time Pace
1 Caitlin Secrist Asheville NC 121 25 19 26:42.5 8:37/M
2 Caroline Clark Swannanoa NC 24 27 37 30:11.8 9:44/M
3 Monica Reed Asheville NC 87 27 60 36:11.9 11:40/M
4 Ashley Allen Asheville NC 1 24 80 42:07.7 13:35/M
5 Lauren Tolley Old Fort NC 101 29 112 51:50.0 16:43/M
Top

Male 20 to 29

Place Name City Bib No Age Overall Total Time Pace
1 David Downing Asheville NC 120 28 20 26:44.3 8:37/M
2 Spencer Clark Swannanoa NC 25 28 38 30:14.5 9:45/M
Top

Female 30 to 39

Place Name City Bib No Age Overall Total Time Pace
1 Melissa Wardwell Black Mountain NC 109 35 44 31:28.7 10:09/M
2 Amy Berry Black Mountain NC 14 39 71 39:47.0 12:50/M
3 Jen Mozolii Black Mountain NC 72 37 85 43:13.8 13:56/M
4 Sara Stillwell Black Mountain NC 129 37 90 44:55.2 14:29/M
5 Nora Nelson Black Mountain NC 75 37 98 48:18.8 15:35/M
6 Rachael Sylvestre Black Mountain NC 100 31 99 49:05.0 15:50/M
7 Kim Reece Swannanoa NC 84 33 109 51:49.2 16:43/M
8 Melissa Nink Indian Trail NC 77 31 111 51:49.8 16:43/M
Top

Male 30 to 39

Place Name City Bib No Age Overall Total Time Pace
1 Jon Conner Candler NC 119 31 3 19:49.7 6:24/M
2 Michael Guyer Black Mountain NC 118 31 4 21:10.8 6:50/M
3 Nate Buchanan Asheville NC 19 32 6 22:34.1 7:17/M
4 Eric Wardwell Black Mountain NC 108 36 30 29:13.0 9:25/M
5 Nick Stillwell Black Mountain NC 127 39 62 36:45.4 11:51/M
6 Kenny Sudnik Black Mountain NC 147 39 102 49:27.7 15:57/M
7 Joey Borders Asheville NC 18 38 106 49:49.2 16:04/M
Top

Female 40 to 49

Place Name City Bib No Age Overall Total Time Pace
1 Rachel Averett Black Mountain NC 10 42 25 28:00.0 9:02/M
2 Laurie Obrien Chicago IL 144 42 26 28:54.5 9:19/M
3 Heather Minks Black Mountain NC 149 42 39 30:56.1 9:59/M
4 Jen Bailey Asheville NC 12 46 50 33:58.5 10:57/M
5 Christina Watkin Black Mountain NC 116 43 54 35:55.0 11:35/M
6 Alice Freeman Montreat NC 40 40 57 36:05.2 11:38/M
7 Corinne Drake Black Mountain NC 30 41 59 36:09.7 11:40/M
8 Jamie Goodwin Swannanoa NC 41 42 63 36:45.9 11:51/M
9 Beth Anderson Black Mountain NC 4 45 67 37:46.7 12:11/M
10 Carol Steele Black Mountain NC 94 44 68 37:47.2 12:11/M
11 Ashley Gibbon Black Mountain NC 114 41 82 42:59.1 13:52/M
12 Erica Griffin Black Mountain NC 128 40 88 44:03.3 14:13/M
13 Carolita Hermanni Asheville NC 54 46 91 46:09.5 14:53/M
14 Eve Kearns Black Mountain NC 58 45 93 47:27.8 15:18/M
15 Rachel Austin Swannanoa NC 7 42 119 57:05.8 18:25/M
16 Julie Wallace Black Mountain NC 103 41 123 57:39.3 18:36/M
17 Joanne Latta Black Mountain NC 64 44 129 59:46.0 19:17/M
Top

Male 40 to 49

Place Name City Bib No Age Overall Total Time Pace
1 David Leglise Asheville NC 65 44 8 23:51.1 7:42/M
2 Tripp Anderson Black Mountain NC 5 44 16 25:44.5 8:18/M
3 Chris De Beer Black Mountain NC 122 42 22 27:06.5 8:45/M
4 Dan Hale Black Mountain NC 52 48 35 29:39.2 9:34/M
5 Aaron Carson Asheville MT 134 46 78 41:20.7 13:20/M
6 Dennis Gregory Black Mountain NC 45 49 107 50:35.0 16:19/M
7 Tim Woodcock Asheville NC 112 42 118 56:52.1 18:21/M
Top

Female 50 to 59

Place Name City Bib No Age Overall Total Time Pace
1 Charlene Rumfelt Enka NC 89 56 103 49:31.2 15:58/M
2 Danielle Griffin Black Mountain NC 49 51 121 57:24.4 18:31/M
Top

Male 50 to 59

Place Name City Bib No Age Overall Total Time Pace
1 Patrick Obrien Chicago IL 141 51 5 21:42.1 7:00/M
2 Joe Lehman Black Mountain NC 140 53 41 30:59.8 10:00/M
3 David Lamotte Black Mountain NC 60 50 66 37:25.0 12:04/M
4 Dwight Christenbury Black Mountain NC 21 52 127 58:21.9 18:49/M
Top

Female 60 and Over

Place Name City Bib No Age Overall Total Time Pace
1 Barbara Reece Swannanoa NC 82 64 114 53:05.9 17:07/M
Top

Male 60 and Over

Place Name City Bib No Age Overall Total Time Pace
1 Jeff Stone Weaverville NC 95 61 17 25:52.5 8:21/M
2 Dick Reaves Cary NC 139 69 24 27:56.5 9:01/M
3 Peter Stapanowich Asheville NC 93 60 33 29:26.6 9:30/M